Time;durP1;ratioP1;P1;durP2;ratioP2;P2;SDS_P1;SDS_P2;PMS_P1;PMS_P2;Temp;Humidity;BMP_temperature;BMP_pressure;BME280_temperature;BME280_humidity;BME280_pressure;Samples;Min_cycle;Max_cycle;Signal;HPM_P1;HPM_P2
2023/03/07 00:00:04;;;;;;;25.92;15.60;;;;;4.40;97272.00;;;;4917078;29;20044;-57
2023/03/07 00:02:31;;;;;;;28.13;16.10;;;;;4.40;97270.00;;;;4918920;29;20060;-57
2023/03/07 00:04:57;;;;;;;28.23;16.02;;;;;4.50;97268.00;;;;4918777;29;20134;-58
2023/03/07 00:07:24;;;;;;;27.10;15.77;;;;;4.40;97270.00;;;;4918848;29;20095;-57
2023/03/07 00:09:52;;;;;;;26.13;15.45;;;;;4.40;97273.00;;;;4918069;29;20076;-58
2023/03/07 00:12:20;;;;;;;25.17;15.10;;;;;4.40;97272.00;;;;4918449;29;20367;-57
2023/03/07 00:14:47;;;;;;;29.55;15.50;;;;;4.40;97264.00;;;;4933451;29;20401;-57
2023/03/07 00:17:13;;;;;;;28.60;16.55;;;;;4.40;97273.00;;;;4918608;29;20048;-57
2023/03/07 00:19:43;;;;;;;25.67;15.50;;;;;4.40;97275.00;;;;4917824;29;20051;-57
2023/03/07 00:22:10;;;;;;;27.58;15.63;;;;;4.30;97279.00;;;;4918703;29;20516;-57
2023/03/07 00:24:40;;;;;;;27.05;15.73;;;;;4.30;97266.00;;;;4918399;29;20119;-56
2023/03/07 00:27:07;;;;;;;28.17;16.05;;;;;4.30;97266.00;;;;4916981;29;20428;-58
2023/03/07 00:29:34;;;;;;;27.45;16.80;;;;;4.30;97262.00;;;;4915215;29;20051;-55
2023/03/07 00:32:00;;;;;;;31.17;17.45;;;;;4.30;97259.00;;;;4917158;29;20067;-59
2023/03/07 00:34:27;;;;;;;29.88;17.45;;;;;4.30;97256.00;;;;4918146;29;20051;-57
2023/03/07 00:36:53;;;;;;;31.58;18.60;;;;;4.40;97260.00;;;;4932710;29;20052;-57
2023/03/07 00:39:20;;;;;;;24.60;16.08;;;;;4.30;97247.00;;;;4918161;29;20048;-56
2023/03/07 00:41:46;;;;;;;27.35;15.45;;;;;4.40;97245.00;;;;4916374;29;20628;-57
2023/03/07 00:44:13;;;;;;;27.27;17.50;;;;;4.30;97249.00;;;;4917996;29;20040;-58
2023/03/07 00:46:39;;;;;;;28.65;17.15;;;;;4.20;97247.00;;;;4916865;29;20052;-57
2023/03/07 00:49:07;;;;;;;28.40;17.00;;;;;4.20;97239.00;;;;4916820;29;20048;-56
2023/03/07 00:51:34;;;;;;;28.77;15.70;;;;;4.20;97240.00;;;;4931718;29;20151;-57
2023/03/07 00:54:02;;;;;;;27.08;16.73;;;;;4.20;97242.00;;;;4932438;29;20394;-59
2023/03/07 00:56:29;;;;;;;26.92;16.55;;;;;4.20;97242.00;;;;4916451;29;20100;-57
2023/03/07 00:58:56;;;;;;;25.65;16.10;;;;;4.10;97244.00;;;;4917768;29;20047;-56
2023/03/07 01:01:24;;;;;;;27.88;16.35;;;;;4.10;97235.00;;;;4915905;29;20466;-57
2023/03/07 01:03:52;;;;;;;27.60;16.48;;;;;4.10;97229.00;;;;4916754;29;20048;-58
2023/03/07 01:06:25;;;;;;;26.08;16.33;;;;;4.20;97233.00;;;;4932522;29;20514;-56
2023/03/07 01:08:55;;;;;;;25.63;16.17;;;;;4.10;97228.00;;;;4916646;29;20513;-56
2023/03/07 01:11:22;;;;;;;26.63;16.23;;;;;4.00;97224.00;;;;4931705;29;20370;-57
2023/03/07 01:13:48;;;;;;;25.58;16.00;;;;;4.00;97228.00;;;;4917861;29;20445;-57
2023/03/07 01:16:18;;;;;;;26.42;15.57;;;;;4.00;97227.00;;;;4916522;29;20072;-57
2023/03/07 01:18:48;;;;;;;25.13;15.40;;;;;3.90;97225.00;;;;4917837;29;20079;-56
2023/03/07 01:21:19;;;;;;;25.13;15.60;;;;;3.90;97223.00;;;;4900285;29;20059;-60
2023/03/07 01:23:47;;;;;;;23.92;15.02;;;;;3.90;97215.00;;;;4916394;29;20048;-58
2023/03/07 01:26:18;;;;;;;22.23;14.07;;;;;3.90;97216.00;;;;4916421;29;20062;-56
2023/03/07 01:28:46;;;;;;;21.20;13.82;;;;;3.90;97222.00;;;;4932402;29;20056;-56
2023/03/07 01:31:13;;;;;;;22.38;13.48;;;;;3.90;97215.00;;;;4916469;29;20481;-56
2023/03/07 01:33:40;;;;;;;27.05;15.25;;;;;3.90;97222.00;;;;4917197;29;20036;-56
2023/03/07 01:36:39;;;;;;;21.23;13.63;;;;;3.90;97217.00;;;;4916026;29;20425;-58
2023/03/07 01:39:16;;;;;;;22.00;13.80;;;;;3.90;97220.00;;;;4890668;29;20231;-56
2023/03/07 01:41:55;;;;;;;21.08;13.93;;;;;3.90;97216.00;;;;4931245;29;20416;-57
2023/03/07 01:44:27;;;;;;;22.05;13.05;;;;;3.90;97204.00;;;;4915715;29;20462;-57
2023/03/07 01:46:57;;;;;;;21.20;13.05;;;;;4.00;97207.00;;;;4915704;29;20050;-57
2023/03/07 01:49:39;;;;;;;17.92;11.90;;;;;3.90;97213.00;;;;4915057;29;20051;-56
2023/03/07 01:52:11;;;;;;;19.30;12.50;;;;;3.90;97202.00;;;;4915785;29;20043;-56
2023/03/07 01:54:47;;;;;;;20.35;13.35;;;;;3.90;97198.00;;;;4915605;29;20143;-58
2023/03/07 01:57:24;;;;;;;18.55;13.32;;;;;3.90;97192.00;;;;4900117;29;20096;-57
2023/03/07 01:59:54;;;;;;;18.98;12.88;;;;;3.90;97180.00;;;;4916197;29;20127;-60
2023/03/07 02:02:23;;;;;;;20.30;13.00;;;;;3.90;97180.00;;;;4916556;29;20043;-57
2023/03/07 02:04:56;;;;;;;20.95;13.50;;;;;3.90;97184.00;;;;4915536;29;20048;-56
2023/03/07 02:07:27;;;;;;;18.25;12.07;;;;;3.90;97173.00;;;;4931371;29;20099;-56
2023/03/07 02:09:55;;;;;;;17.90;12.50;;;;;3.90;97182.00;;;;4915968;29;20462;-55
2023/03/07 02:12:22;;;;;;;19.70;12.77;;;;;3.90;97182.00;;;;4930584;29;20056;-56
2023/03/07 02:14:50;;;;;;;19.80;13.00;;;;;3.90;97171.00;;;;4915283;29;20048;-59
2023/03/07 02:17:17;;;;;;;19.27;12.05;;;;;3.90;97171.00;;;;4931058;29;20099;-55
2023/03/07 02:19:53;;;;;;;20.85;13.40;;;;;3.90;97169.00;;;;4914800;29;20513;-56
2023/03/07 02:22:20;;;;;;;18.92;12.75;;;;;3.90;97166.00;;;;4930911;29;20056;-56
2023/03/07 02:24:59;;;;;;;19.42;12.32;;;;;3.80;97154.00;;;;4914887;29;20048;-56
2023/03/07 02:27:30;;;;;;;19.90;13.63;;;;;3.80;97157.00;;;;4931053;29;20059;-61
2023/03/07 02:29:56;;;;;;;22.00;13.60;;;;;3.90;97150.00;;;;4914957;29;20048;-61
2023/03/07 02:32:23;;;;;;;21.05;13.98;;;;;3.90;97146.00;;;;4915373;29;20052;-61
2023/03/07 02:34:50;;;;;;;20.20;12.45;;;;;3.90;97151.00;;;;4915025;29;20044;-61
2023/03/07 02:37:27;;;;;;;22.67;14.60;;;;;3.90;97151.00;;;;4931092;29;20075;-60
2023/03/07 02:39:58;;;;;;;20.25;13.95;;;;;4.00;97151.00;;;;4929985;29;20505;-61
2023/03/07 02:42:29;;;;;;;22.05;13.82;;;;;4.00;97142.00;;;;4915031;29;20059;-60
2023/03/07 02:45:08;;;;;;;23.75;13.90;;;;;3.90;97142.00;;;;4915034;29;20055;-61
2023/03/07 02:47:37;;;;;;;24.83;14.85;;;;;3.90;97139.00;;;;4930821;29;20081;-61
2023/03/07 02:50:05;;;;;;;25.15;15.93;;;;;3.90;97142.00;;;;4914384;29;20569;-60
2023/03/07 02:52:32;;;;;;;21.83;13.93;;;;;3.90;97145.00;;;;4929657;29;20104;-59
2023/03/07 02:54:58;;;;;;;23.05;13.88;;;;;3.90;97142.00;;;;4914834;29;20052;-61
2023/03/07 02:57:30;;;;;;;25.00;15.13;;;;;4.00;97131.00;;;;4914662;29;20052;-61
2023/03/07 02:59:58;;;;;;;22.17;13.88;;;;;4.00;97126.00;;;;4929925;29;20051;-61
2023/03/07 03:02:25;;;;;;;22.70;15.65;;;;;4.10;97132.00;;;;4915843;29;20497;-61
2023/03/07 03:04:52;;;;;;;25.40;15.23;;;;;4.00;97126.00;;;;4915579;29;20103;-61
2023/03/07 03:07:21;;;;;;;23.88;14.25;;;;;4.10;97129.00;;;;4930411;29;20082;-61
2023/03/07 03:09:48;;;;;;;24.48;14.50;;;;;4.10;97141.00;;;;4929772;29;20390;-61
2023/03/07 03:12:15;;;;;;;25.23;14.85;;;;;4.10;97143.00;;;;4915584;29;20143;-61
2023/03/07 03:14:42;;;;;;;25.08;14.88;;;;;4.10;97131.00;;;;4930382;29;20052;-61
2023/03/07 03:17:09;;;;;;;25.63;15.63;;;;;4.10;97132.00;;;;4930299;29;20137;-61
2023/03/07 03:19:36;;;;;;;26.98;16.23;;;;;4.10;97122.00;;;;4914990;29;20052;-61
2023/03/07 03:22:03;;;;;;;26.40;16.13;;;;;4.20;97135.00;;;;4915717;29;20056;-61
2023/03/07 03:24:41;;;;;;;26.17;16.02;;;;;4.20;97132.00;;;;4930806;29;20528;-61
2023/03/07 03:27:10;;;;;;;27.25;16.38;;;;;4.20;97124.00;;;;4916196;29;20054;-61
2023/03/07 03:29:37;;;;;;;28.98;16.92;;;;;4.20;97119.00;;;;4916457;29;20147;-61
2023/03/07 03:32:05;;;;;;;26.38;15.68;;;;;4.30;97121.00;;;;4914274;29;20052;-61
2023/03/07 03:34:32;;;;;;;25.55;15.70;;;;;4.20;97111.00;;;;4915708;29;20098;-59
2023/03/07 03:36:59;;;;;;;29.17;15.77;;;;;4.20;97111.00;;;;4915791;29;20044;-61
2023/03/07 03:39:27;;;;;;;25.60;14.98;;;;;4.20;97112.00;;;;4929809;29;20529;-60
2023/03/07 03:41:57;;;;;;;27.13;15.20;;;;;4.30;97103.00;;;;4930333;29;20056;-59
2023/03/07 03:44:25;;;;;;;23.17;14.48;;;;;4.20;97099.00;;;;4914405;29;20045;-61
2023/03/07 03:46:51;;;;;;;25.75;15.68;;;;;4.30;97094.00;;;;4914307;29;20048;-61
2023/03/07 03:49:21;;;;;;;28.98;15.80;;;;;4.20;97101.00;;;;4930962;29;20048;-60
2023/03/07 03:51:49;;;;;;;23.90;14.68;;;;;4.30;97092.00;;;;4914004;29;20581;-61
2023/03/07 03:54:16;;;;;;;25.85;15.45;;;;;4.20;97086.00;;;;4914345;29;20052;-61
2023/03/07 03:56:43;;;;;;;26.60;14.50;;;;;4.20;97076.00;;;;4915454;29;20394;-61
2023/03/07 03:59:09;;;;;;;24.27;13.95;;;;;4.20;97069.00;;;;4914053;29;20056;-61
2023/03/07 04:01:36;;;;;;;22.48;13.93;;;;;4.20;97076.00;;;;4913431;29;20433;-60
2023/03/07 04:04:04;;;;;;;22.55;14.13;;;;;4.20;97074.00;;;;4930916;29;20044;-61
2023/03/07 04:06:33;;;;;;;23.48;14.40;;;;;4.10;97073.00;;;;4933349;29;20063;-61
2023/03/07 04:09:01;;;;;;;23.17;14.05;;;;;4.10;97079.00;;;;4933409;29;20075;-56
2023/03/07 04:11:28;;;;;;;25.17;14.63;;;;;4.10;97077.00;;;;4917112;29;20123;-57
2023/03/07 04:13:55;;;;;;;26.88;14.57;;;;;4.10;97068.00;;;;4917375;29;20051;-58
2023/03/07 04:16:22;;;;;;;23.70;14.70;;;;;4.10;97062.00;;;;4917362;29;20056;-56
2023/03/07 04:18:49;;;;;;;22.88;14.50;;;;;4.10;97074.00;;;;4918562;29;20047;-59
2023/03/07 04:21:16;;;;;;;22.75;13.77;;;;;4.10;97070.00;;;;4917735;29;20095;-56
2023/03/07 04:23:43;;;;;;;24.92;13.88;;;;;4.10;97063.00;;;;4917058;29;20043;-56
2023/03/07 04:26:10;;;;;;;23.10;13.73;;;;;4.10;97054.00;;;;4917058;29;20048;-56
2023/03/07 04:28:43;;;;;;;19.35;11.43;;;;;4.10;97056.00;;;;4932997;29;20071;-56
2023/03/07 04:31:19;;;;;;;23.70;13.93;;;;;4.10;97044.00;;;;4917837;29;20048;-56
2023/03/07 04:33:46;;;;;;;24.60;12.63;;;;;4.10;97055.00;;;;4932805;29;20100;-56
2023/03/07 04:36:17;;;;;;;21.10;13.20;;;;;4.10;97048.00;;;;4916971;29;20048;-56
2023/03/07 04:38:45;;;;;;;23.33;13.35;;;;;4.10;97049.00;;;;4916816;29;20098;-57
2023/03/07 04:41:14;;;;;;;24.13;12.68;;;;;4.10;97044.00;;;;4916372;29;20044;-57
2023/03/07 04:43:41;;;;;;;20.45;13.27;;;;;4.10;97044.00;;;;4916932;29;20044;-61
2023/03/07 04:46:10;;;;;;;22.58;12.13;;;;;4.10;97045.00;;;;4932756;29;20478;-56
2023/03/07 04:48:37;;;;;;;22.38;12.63;;;;;4.10;97039.00;;;;4916788;29;20084;-56
2023/03/07 04:51:04;;;;;;;21.33;12.95;;;;;4.10;97045.00;;;;4931742;29;20086;-55
2023/03/07 04:53:31;;;;;;;23.17;13.30;;;;;4.10;97041.00;;;;4916805;29;20124;-56
2023/03/07 04:55:59;;;;;;;20.63;12.55;;;;;4.10;97044.00;;;;4916786;29;20139;-56
2023/03/07 04:58:26;;;;;;;19.35;11.82;;;;;4.10;97043.00;;;;4916559;29;20048;-56
2023/03/07 05:00:55;;;;;;;21.63;13.52;;;;;4.20;97043.00;;;;4931640;29;20056;-55
2023/03/07 05:03:25;;;;;;;24.92;12.45;;;;;4.20;97039.00;;;;4916567;29;20135;-56
2023/03/07 05:05:52;;;;;;;21.35;12.63;;;;;4.20;97040.00;;;;4916374;29;20572;-57
2023/03/07 05:08:19;;;;;;;21.17;12.27;;;;;4.20;97032.00;;;;4932309;29;20138;-56
2023/03/07 05:10:46;;;;;;;19.30;11.70;;;;;4.20;97032.00;;;;4917256;29;20044;-55
2023/03/07 05:13:13;;;;;;;22.17;12.32;;;;;4.20;97029.00;;;;4916551;29;20055;-61
2023/03/07 05:15:40;;;;;;;20.77;12.25;;;;;4.20;97037.00;;;;4915979;29;20425;-59
2023/03/07 05:18:07;;;;;;;19.13;11.70;;;;;4.20;97034.00;;;;4916584;29;20063;-63
2023/03/07 05:20:33;;;;;;;18.35;11.77;;;;;4.20;97009.00;;;;4931535;29;20145;-61
2023/03/07 05:23:00;;;;;;;19.35;11.98;;;;;4.20;97011.00;;;;4916367;29;20584;-61
2023/03/07 05:25:27;;;;;;;22.58;11.80;;;;;4.20;97016.00;;;;4900533;29;20568;-60
2023/03/07 05:27:54;;;;;;;20.60;11.98;;;;;4.10;97009.00;;;;4916289;29;20085;-61
2023/03/07 05:30:21;;;;;;;18.20;11.57;;;;;4.10;97004.00;;;;4916755;29;20048;-61
2023/03/07 05:32:47;;;;;;;20.17;12.55;;;;;4.00;96991.00;;;;4917408;29;20055;-61
2023/03/07 05:35:15;;;;;;;24.48;13.38;;;;;4.00;96997.00;;;;4917247;29;20044;-61
2023/03/07 05:37:43;;;;;;;20.95;12.18;;;;;3.90;96997.00;;;;4916443;29;20074;-60
2023/03/07 05:40:10;;;;;;;24.67;11.63;;;;;3.90;96997.00;;;;4915847;29;20050;-61
2023/03/07 05:42:41;;;;;;;18.90;11.70;;;;;3.80;96993.00;;;;4916268;29;20052;-61
2023/03/07 05:45:09;;;;;;;18.20;10.95;;;;;3.80;96990.00;;;;4915916;29;20040;-61
2023/03/07 05:47:37;;;;;;;19.40;11.63;;;;;3.80;96988.00;;;;4917102;29;20075;-61
2023/03/07 05:50:08;;;;;;;18.63;11.32;;;;;3.80;96991.00;;;;4916344;29;20501;-61
2023/03/07 05:52:35;;;;;;;19.90;11.57;;;;;3.80;96988.00;;;;4916080;29;20048;-61
2023/03/07 05:55:02;;;;;;;16.35;10.75;;;;;3.80;96992.00;;;;4917227;29;20461;-61
2023/03/07 05:57:30;;;;;;;19.90;11.25;;;;;3.80;96986.00;;;;4915591;29;20040;-61
2023/03/07 05:59:57;;;;;;;17.80;10.90;;;;;3.80;96988.00;;;;4930970;29;20048;-61
2023/03/07 06:02:23;;;;;;;19.00;12.10;;;;;3.70;96988.00;;;;4917221;29;20051;-60
2023/03/07 06:04:50;;;;;;;15.95;10.57;;;;;3.80;96989.00;;;;4916691;29;20103;-61
2023/03/07 06:07:17;;;;;;;22.92;13.07;;;;;3.80;96987.00;;;;4915560;29;20044;-62
2023/03/07 06:09:44;;;;;;;18.92;11.88;;;;;3.80;96984.00;;;;4916206;29;20099;-61
2023/03/07 06:12:11;;;;;;;18.15;10.93;;;;;3.80;96991.00;;;;4915534;29;20052;-60
2023/03/07 06:14:38;;;;;;;22.23;12.27;;;;;3.80;96986.00;;;;4916759;29;20036;-61
2023/03/07 06:17:05;;;;;;;22.33;12.93;;;;;3.80;96983.00;;;;4916676;29;20509;-61
2023/03/07 06:19:33;;;;;;;22.15;13.45;;;;;3.80;96986.00;;;;4930483;29;20143;-61
2023/03/07 06:21:59;;;;;;;23.95;14.82;;;;;3.80;96974.00;;;;4931119;29;20055;-61
2023/03/07 06:24:26;;;;;;;16.02;9.65;;;;;3.80;96980.00;;;;4916721;29;20131;-61
2023/03/07 06:26:56;;;;;;;16.20;10.43;;;;;3.80;96986.00;;;;4899953;29;20139;-61
2023/03/07 06:29:24;;;;;;;21.77;12.80;;;;;3.80;96979.00;;;;4930922;29;20104;-61
2023/03/07 06:31:51;;;;;;;20.50;13.30;;;;;3.80;96984.00;;;;4915162;29;20135;-61
2023/03/07 06:34:17;;;;;;;19.30;10.77;;;;;3.80;96986.00;;;;4915283;29;20040;-61
2023/03/07 06:36:47;;;;;;;16.27;10.80;;;;;3.90;96990.00;;;;4931039;29;20048;-62
2023/03/07 06:39:19;;;;;;;17.70;10.35;;;;;4.00;96985.00;;;;4915154;29;20103;-57
2023/03/07 06:41:49;;;;;;;17.95;10.05;;;;;4.00;96990.00;;;;4914154;29;20048;-55
2023/03/07 06:44:25;;;;;;;14.10;9.63;;;;;4.00;97000.00;;;;4916102;29;20066;-57
2023/03/07 06:46:52;;;;;;;14.38;9.10;;;;;4.00;97002.00;;;;4914994;29;20139;-55
2023/03/07 06:49:20;;;;;;;14.52;9.95;;;;;4.00;97004.00;;;;4914729;29;20067;-55
2023/03/07 06:51:47;;;;;;;14.20;9.05;;;;;4.00;96996.00;;;;4898901;29;20056;-57
2023/03/07 06:54:15;;;;;;;15.57;9.48;;;;;4.00;97004.00;;;;4914633;29;20055;-55
2023/03/07 06:56:41;;;;;;;17.55;10.32;;;;;4.00;97001.00;;;;4930499;29;20221;-57
2023/03/07 06:59:14;;;;;;;14.75;8.85;;;;;4.00;96993.00;;;;4930612;29;20071;-58
2023/03/07 07:01:41;;;;;;;16.13;10.05;;;;;4.00;96999.00;;;;4914226;29;20051;-56
2023/03/07 07:04:10;;;;;;;19.90;9.32;;;;;4.00;97003.00;;;;4914651;29;20561;-57
2023/03/07 07:06:39;;;;;;;14.57;9.45;;;;;4.00;96998.00;;;;4914425;29;20054;-58
2023/03/07 07:09:05;;;;;;;14.18;8.98;;;;;4.10;97005.00;;;;4915797;29;20050;-60
2023/03/07 07:11:36;;;;;;;15.20;9.18;;;;;4.20;97008.00;;;;4913567;29;20055;-56
2023/03/07 07:14:04;;;;;;;15.25;9.38;;;;;4.20;96996.00;;;;4930335;29;20465;-54
2023/03/07 07:16:32;;;;;;;15.40;9.48;;;;;4.30;97001.00;;;;4914543;29;20052;-56
2023/03/07 07:18:59;;;;;;;17.45;9.57;;;;;4.30;97008.00;;;;4930017;29;20044;-57
2023/03/07 07:21:26;;;;;;;16.58;9.25;;;;;4.40;96997.00;;;;4929602;29;20107;-60
2023/03/07 07:23:56;;;;;;;15.18;9.25;;;;;4.40;97009.00;;;;4931133;29;20421;-55
2023/03/07 07:26:25;;;;;;;14.50;9.43;;;;;4.40;97000.00;;;;4930956;29;20052;-56
2023/03/07 07:28:52;;;;;;;12.55;8.60;;;;;4.50;97007.00;;;;4916200;29;20051;-58
2023/03/07 07:31:18;;;;;;;17.50;8.75;;;;;4.60;97005.00;;;;4915138;29;20044;-58
2023/03/07 07:33:45;;;;;;;13.88;8.52;;;;;4.70;96997.00;;;;4914369;29;20059;-58
2023/03/07 07:36:13;;;;;;;13.20;8.80;;;;;4.80;97010.00;;;;4930170;29;20070;-58
2023/03/07 07:38:40;;;;;;;16.73;9.93;;;;;4.90;97007.00;;;;4930873;29;20366;-58
2023/03/07 07:41:06;;;;;;;16.92;9.02;;;;;4.90;97003.00;;;;4933121;29;20108;-58
2023/03/07 07:43:33;;;;;;;14.88;9.05;;;;;4.90;97006.00;;;;4933946;29;20119;-58
2023/03/07 07:46:13;;;;;;;14.57;9.05;;;;;5.00;97011.00;;;;4917818;29;20047;-58
2023/03/07 07:48:39;;;;;;;13.35;9.40;;;;;5.00;97008.00;;;;4933686;29;20090;-58
2023/03/07 07:51:06;;;;;;;14.00;8.95;;;;;5.00;97013.00;;;;4933144;29;20135;-58
2023/03/07 07:53:35;;;;;;;12.98;8.25;;;;;5.00;97004.00;;;;4917859;29;20044;-59
2023/03/07 07:56:02;;;;;;;13.77;8.85;;;;;5.00;97002.00;;;;4933605;29;20048;-58
2023/03/07 07:58:29;;;;;;;12.88;8.35;;;;;5.10;96992.00;;;;4917926;29;20048;-58
2023/03/07 08:00:55;;;;;;;15.05;9.00;;;;;5.20;96991.00;;;;4932672;29;20048;-59
2023/03/07 08:03:22;;;;;;;14.38;9.57;;;;;5.30;96996.00;;;;4919006;29;20044;-60
2023/03/07 08:05:49;;;;;;;12.43;8.93;;;;;5.40;96997.00;;;;4918700;29;20044;-61
2023/03/07 08:08:17;;;;;;;13.82;9.35;;;;;5.50;96991.00;;;;4918868;29;20051;-63
2023/03/07 08:10:47;;;;;;;14.10;9.15;;;;;5.60;96993.00;;;;4918322;29;20048;-61
2023/03/07 08:13:16;;;;;;;13.45;8.75;;;;;5.70;96997.00;;;;4933260;29;20044;-62
2023/03/07 08:15:43;;;;;;;15.77;9.02;;;;;5.70;96992.00;;;;4918715;29;20044;-61
2023/03/07 08:18:09;;;;;;;15.88;9.38;;;;;5.60;96985.00;;;;4918756;29;20082;-60
2023/03/07 08:20:37;;;;;;;13.63;8.38;;;;;5.80;96990.00;;;;4917941;29;20052;-61
2023/03/07 08:23:04;;;;;;;16.65;8.27;;;;;5.80;96986.00;;;;4918608;29;20059;-61
2023/03/07 08:25:31;;;;;;;15.90;9.15;;;;;5.90;96979.00;;;;4918572;29;20166;-62
2023/03/07 08:27:58;;;;;;;13.30;8.52;;;;;5.90;96979.00;;;;4917160;29;20048;-62
2023/03/07 08:30:26;;;;;;;15.35;8.57;;;;;5.90;96971.00;;;;4917843;29;20048;-62
2023/03/07 08:32:54;;;;;;;11.98;7.80;;;;;6.00;96967.00;;;;4917376;29;20044;-62
2023/03/07 08:35:21;;;;;;;13.07;8.02;;;;;6.00;96983.00;;;;4918230;29;20055;-61
2023/03/07 08:37:53;;;;;;;15.57;8.23;;;;;5.90;96982.00;;;;4918315;29;20043;-61
2023/03/07 08:40:20;;;;;;;13.70;8.80;;;;;5.90;96980.00;;;;4917562;29;20052;-62
2023/03/07 08:42:46;;;;;;;11.90;7.75;;;;;5.90;96990.00;;;;4918582;29;20452;-61
2023/03/07 08:45:14;;;;;;;12.52;8.10;;;;;5.90;96989.00;;;;4918390;29;20044;-62
2023/03/07 08:47:40;;;;;;;12.30;7.93;;;;;5.90;96971.00;;;;4917178;29;20060;-60
2023/03/07 08:50:07;;;;;;;12.10;7.90;;;;;6.00;96975.00;;;;4916630;29;20449;-61
2023/03/07 08:52:34;;;;;;;13.35;8.88;;;;;5.90;96963.00;;;;4918086;29;20095;-62
2023/03/07 08:55:01;;;;;;;11.85;8.40;;;;;5.90;96975.00;;;;4918010;29;20040;-61
2023/03/07 08:57:27;;;;;;;12.32;8.20;;;;;5.90;96961.00;;;;4916984;29;20493;-60
2023/03/07 08:59:53;;;;;;;12.57;8.13;;;;;6.00;96972.00;;;;4917344;29;20055;-59
2023/03/07 09:02:20;;;;;;;12.75;8.75;;;;;6.00;96960.00;;;;4916455;29;20071;-59
2023/03/07 09:04:47;;;;;;;13.70;8.25;;;;;6.10;96957.00;;;;4917490;29;20044;-58
2023/03/07 09:07:13;;;;;;;13.73;8.77;;;;;6.20;96947.00;;;;4917701;29;20052;-58
2023/03/07 09:09:40;;;;;;;13.02;8.60;;;;;6.40;96944.00;;;;4917020;29;20469;-59
2023/03/07 09:12:06;;;;;;;15.93;8.73;;;;;6.70;96946.00;;;;4917402;29;20055;-58
2023/03/07 09:14:33;;;;;;;13.57;8.88;;;;;6.90;96952.00;;;;4917767;29;20426;-60
2023/03/07 09:16:59;;;;;;;13.82;8.18;;;;;7.00;96955.00;;;;4917448;29;20040;-58
2023/03/07 09:19:26;;;;;;;13.95;8.25;;;;;7.30;96961.00;;;;4917147;29;20092;-58
2023/03/07 09:21:52;;;;;;;12.38;8.52;;;;;7.30;96948.00;;;;4917185;29;20040;-58
2023/03/07 09:24:19;;;;;;;12.45;8.25;;;;;7.40;96955.00;;;;4916224;29;20052;-58
2023/03/07 09:26:45;;;;;;;13.38;7.72;;;;;7.60;96949.00;;;;4916076;29;20457;-58
2023/03/07 09:29:12;;;;;;;12.13;8.25;;;;;7.80;96954.00;;;;4916241;29;20405;-56
2023/03/07 09:31:40;;;;;;;12.23;7.45;;;;;7.90;96950.00;;;;4916639;29;20044;-56
2023/03/07 09:34:06;;;;;;;11.25;7.53;;;;;7.90;96943.00;;;;4915987;29;20056;-56
2023/03/07 09:36:33;;;;;;;12.20;8.43;;;;;7.80;96947.00;;;;4917500;29;20048;-56
2023/03/07 09:38:59;;;;;;;13.77;8.68;;;;;7.80;96939.00;;;;4917162;29;20125;-60
2023/03/07 09:42:01;;;;;;;10.20;7.93;;;;;7.90;96939.00;;;;4931057;29;20052;-58
2023/03/07 09:44:31;;;;;;;11.63;7.88;;;;;8.10;96944.00;;;;4910842;29;20059;-59
2023/03/07 09:47:24;;;;;;;12.70;7.15;;;;;8.20;96943.00;;;;4917032;29;20075;-59
2023/03/07 09:49:52;;;;;;;13.00;9.07;;;;;8.30;96941.00;;;;4916168;29;20099;-58
2023/03/07 09:52:26;;;;;;;12.75;7.70;;;;;8.30;96937.00;;;;4916805;29;20050;-57
2023/03/07 09:54:59;;;;;;;;;;;;;8.30;96930.00;;;;4917314;29;20047;-55
2023/03/07 09:57:33;;;;;;;12.25;7.72;;;;;8.30;96926.00;;;;4916924;29;19923;-59
2023/03/07 10:00:17;;;;;;;14.05;8.50;;;;;8.20;96935.00;;;;4917201;29;20051;-57
2023/03/07 10:02:59;;;;;;;13.48;8.40;;;;;8.30;96915.00;;;;4916748;29;20052;-57
2023/03/07 10:05:28;;;;;;;13.48;8.65;;;;;8.30;96933.00;;;;4916804;29;20095;-56
2023/03/07 10:07:55;;;;;;;12.20;7.45;;;;;8.30;96916.00;;;;4915561;29;20048;-58
2023/03/07 10:10:31;;;;;;;12.43;8.02;;;;;8.30;96913.00;;;;4916097;29;20494;-56
2023/03/07 10:13:07;;;;;;;11.63;8.32;;;;;8.40;96921.00;;;;4915344;29;20107;-57
2023/03/07 10:15:59;;;;;;;12.38;8.73;;;;;8.50;96915.00;;;;4916776;29;20044;-57
2023/03/07 10:18:30;;;;;;;12.52;8.38;;;;;8.60;96919.00;;;;4916616;29;20051;-57
2023/03/07 10:21:26;;;;;;;14.88;8.60;;;;;8.80;96914.00;;;;4916029;29;20047;-61
2023/03/07 10:24:21;;;;;;;15.30;9.02;;;;;8.80;96914.00;;;;4916479;29;20058;-61
2023/03/07 10:26:58;;;;;;;14.23;8.68;;;;;8.80;96909.00;;;;4916155;29;20079;-56
2023/03/07 10:29:31;;;;;;;15.65;9.00;;;;;8.90;96910.00;;;;4915920;29;20504;-61
2023/03/07 10:32:17;;;;;;;12.00;7.93;;;;;9.00;96916.00;;;;4899422;29;20565;-56
2023/03/07 10:34:45;;;;;;;15.10;8.50;;;;;9.10;96906.00;;;;4916454;29;20685;-58
2023/03/07 10:37:17;;;;;;;11.07;8.02;;;;;9.20;96898.00;;;;4916061;29;20104;-59
2023/03/07 10:39:55;;;;;;;13.35;8.77;;;;;9.40;96916.00;;;;4915484;29;20055;-60
2023/03/07 10:42:25;;;;;;;13.85;8.52;;;;;9.40;96905.00;;;;4916015;29;20048;-61
2023/03/07 10:44:52;;;;;;;13.95;8.77;;;;;9.50;96906.00;;;;4916083;29;20076;-58
2023/03/07 10:47:24;;;;;;;12.25;8.82;;;;;9.70;96905.00;;;;4914666;29;20048;-57
2023/03/07 10:50:01;;;;;;;15.20;8.77;;;;;9.50;96910.00;;;;4914321;29;20044;-57
2023/03/07 10:52:38;;;;;;;12.60;8.60;;;;;9.40;96901.00;;;;4916057;29;20189;-61
2023/03/07 10:55:28;;;;;;;14.05;9.20;;;;;9.40;96913.00;;;;4915988;29;20449;-57
2023/03/07 10:58:21;;;;;;;12.73;9.30;;;;;9.30;96904.00;;;;4912342;29;20056;-57
2023/03/07 11:01:06;;;;;;;15.65;9.45;;;;;9.40;96912.00;;;;4915363;29;20048;-59
2023/03/07 11:03:44;;;;;;;16.42;9.57;;;;;9.30;96895.00;;;;4915874;29;20064;-56
2023/03/07 11:06:26;;;;;;;16.20;10.07;;;;;9.70;96894.00;;;;4915754;29;20055;-57
2023/03/07 11:08:52;;;;;;;13.75;9.13;;;;;9.90;96910.00;;;;4914727;29;20052;-59
2023/03/07 11:11:25;;;;;;;12.73;9.02;;;;;10.00;96897.00;;;;4914135;29;20087;-58
2023/03/07 11:14:12;;;;;;;18.38;9.63;;;;;10.30;96887.00;;;;4915352;29;20093;-58
2023/03/07 11:16:55;;;;;;;14.43;9.40;;;;;10.50;96895.00;;;;4919816;29;20052;-58
2023/03/07 11:19:31;;;;;;;17.80;10.80;;;;;10.40;96888.00;;;;4919806;29;20048;-57
2023/03/07 11:21:59;;;;;;;19.23;9.90;;;;;10.40;96902.00;;;;4919786;29;20050;-57
2023/03/07 11:24:35;;;;;;;13.18;9.40;;;;;10.50;96888.00;;;;4920824;29;20048;-57
2023/03/07 11:27:03;;;;;;;11.13;8.43;;;;;10.40;96890.00;;;;4920364;29;20040;-57
2023/03/07 11:29:32;;;;;;;15.57;9.10;;;;;10.30;96878.00;;;;4919391;29;20083;-56
2023/03/07 11:32:12;;;;;;;14.82;9.50;;;;;10.30;96871.00;;;;4919750;29;20044;-62
2023/03/07 11:34:47;;;;;;;16.05;10.15;;;;;10.50;96881.00;;;;4919412;29;20058;-59
2023/03/07 11:37:39;;;;;;;12.45;9.43;;;;;10.50;96888.00;;;;4919530;29;20048;-56
2023/03/07 11:40:27;;;;;;;13.80;9.43;;;;;10.40;96873.00;;;;4919043;29;20056;-57
2023/03/07 11:43:04;;;;;;;15.30;9.00;;;;;10.20;96869.00;;;;4918505;29;20048;-57
2023/03/07 11:45:53;;;;;;;16.20;10.40;;;;;10.40;96874.00;;;;4934207;29;20044;-55
2023/03/07 11:48:46;;;;;;;13.23;8.85;;;;;10.40;96866.00;;;;4919482;29;20044;-61
2023/03/07 11:51:34;;;;;;;18.85;11.00;;;;;10.50;96864.00;;;;4918776;29;20052;-56
2023/03/07 11:54:27;;;;;;;17.30;10.18;;;;;10.30;96874.00;;;;4919083;29;20056;-55
2023/03/07 11:57:02;;;;;;;16.20;9.57;;;;;10.10;96870.00;;;;4918976;29;20055;-58
2023/03/07 11:59:55;;;;;;;14.05;9.60;;;;;9.80;96868.00;;;;4917302;29;20048;-57
2023/03/07 12:02:47;;;;;;;16.58;9.38;;;;;9.70;96863.00;;;;4919420;29;20048;-55
2023/03/07 12:05:43;;;;;;;16.08;9.40;;;;;9.60;96855.00;;;;4918995;29;20497;-57
2023/03/07 12:08:44;;;;;;;13.25;9.02;;;;;9.80;96846.00;;;;4918985;29;20540;-59
2023/03/07 12:11:27;;;;;;;13.95;9.52;;;;;9.80;96850.00;;;;4918284;29;20044;-58
2023/03/07 12:14:26;;;;;;;13.45;8.93;;;;;9.90;96850.00;;;;4918867;29;20056;-57
2023/03/07 12:17:16;;;;;;;13.45;9.40;;;;;10.00;96835.00;;;;4876604;29;20063;-61
2023/03/07 12:20:14;;;;;;;13.48;9.68;;;;;10.10;96834.00;;;;4918114;29;20497;-57
2023/03/07 12:23:11;;;;;;;14.25;8.60;;;;;10.50;96835.00;;;;4918954;29;20051;-55
2023/03/07 12:25:44;;;;;;;16.60;9.50;;;;;10.60;96832.00;;;;4918786;29;20060;-57
2023/03/07 12:28:17;;;;;;;16.65;10.63;;;;;10.70;96823.00;;;;4919044;29;20409;-56